Time;durP1;ratioP1;P1;durP2;ratioP2;P2;SDS_P1;SDS_P2;PMS_P1;PMS_P2;Temp;Humidity;BMP_temperature;BMP_pressure;BME280_temperature;BME280_humidity;BME280_pressure;Samples;Min_cycle;Max_cycle;Signal;HPM_P1;HPM_P2
2023/03/19 00:01:44;;;;;;;59.83;28.13;;;;;;;;;;4972722;28;20035;-77
2023/03/19 00:04:10;;;;;;;63.93;30.20;;;;;;;;;;4974159;28;20034;-78
2023/03/19 00:06:36;;;;;;;65.30;28.73;;;;;;;;;;4973861;28;20367;-78
2023/03/19 00:09:02;;;;;;;62.57;28.00;;;;;;;;;;4975442;28;20082;-78
2023/03/19 00:11:28;;;;;;;59.43;28.43;;;;;;;;;;4973672;28;20395;-78
2023/03/19 00:13:53;;;;;;;52.77;28.27;;;;;;;;;;4971517;28;20030;-78
2023/03/19 00:16:19;;;;;;;63.47;31.07;;;;;;;;;;4970644;28;20038;-78
2023/03/19 00:18:45;;;;;;;68.03;32.33;;;;;;;;;;4972031;28;20023;-76
2023/03/19 00:21:10;;;;;;;67.97;27.27;;;;;;;;;;4972482;28;20026;-77
2023/03/19 00:23:36;;;;;;;64.67;29.57;;;;;;;;;;4974411;28;20023;-77
2023/03/19 00:26:02;;;;;;;73.37;29.13;;;;;;;;;;4972345;28;20101;-79
2023/03/19 00:28:29;;;;;;;81.20;30.23;;;;;;;;;;4972021;28;20213;-78
2023/03/19 00:30:55;;;;;;;65.63;29.10;;;;;;;;;;4973850;28;20023;-77
2023/03/19 00:33:21;;;;;;;58.47;28.03;;;;;;;;;;4974916;28;20038;-76
2023/03/19 00:35:47;;;;;;;56.83;27.03;;;;;;;;;;4986713;28;20027;-77
2023/03/19 00:38:12;;;;;;;64.50;28.07;;;;;;;;;;4972424;28;20110;-77
2023/03/19 00:40:38;;;;;;;66.23;29.77;;;;;;;;;;4955485;28;20043;-77
2023/03/19 00:43:03;;;;;;;66.00;29.20;;;;;;;;;;4950403;28;20023;-78
2023/03/19 00:45:29;;;;;;;68.80;31.00;;;;;;;;;;4951303;28;20391;-77
2023/03/19 00:47:56;;;;;;;61.07;28.60;;;;;;;;;;4955479;29;20034;-79
2023/03/19 00:50:24;;;;;;;54.23;28.73;;;;;;;;;;4954740;28;20027;-78
2023/03/19 00:52:50;;;;;;;68.50;29.97;;;;;;;;;;4955388;28;20023;-79
2023/03/19 00:55:15;;;;;;;62.50;31.67;;;;;;;;;;4954061;28;20375;-77
2023/03/19 00:57:41;;;;;;;61.10;28.73;;;;;;;;;;4953590;28;20027;-77
2023/03/19 01:00:07;;;;;;;66.53;31.50;;;;;;;;;;4953481;28;20031;-78
2023/03/19 01:02:33;;;;;;;66.00;31.17;;;;;;;;;;4953486;29;20464;-77
2023/03/19 01:04:58;;;;;;;65.43;30.77;;;;;;;;;;4954779;28;20106;-78
2023/03/19 01:07:24;;;;;;;65.10;30.73;;;;;;;;;;4954826;28;20456;-77
2023/03/19 01:09:50;;;;;;;61.10;30.60;;;;;;;;;;4953415;29;20038;-77
2023/03/19 01:12:18;;;;;;;71.77;30.67;;;;;;;;;;4953861;29;20062;-77
2023/03/19 01:14:43;;;;;;;63.53;30.17;;;;;;;;;;4953206;28;20118;-77
2023/03/19 01:17:09;;;;;;;64.40;29.60;;;;;;;;;;4953315;28;20166;-78
2023/03/19 01:19:34;;;;;;;67.33;29.37;;;;;;;;;;4953803;28;20038;-77
2023/03/19 01:22:01;;;;;;;72.43;30.67;;;;;;;;;;4955023;29;20435;-77
2023/03/19 01:24:30;;;;;;;69.00;31.37;;;;;;;;;;4954834;28;20042;-77
2023/03/19 01:26:55;;;;;;;79.00;33.67;;;;;;;;;;4952862;29;20070;-78
2023/03/19 01:29:21;;;;;;;69.00;31.70;;;;;;;;;;4954347;28;20031;-77
2023/03/19 01:31:46;;;;;;;59.77;30.57;;;;;;;;;;4954581;29;20131;-77
2023/03/19 01:34:12;;;;;;;62.50;30.37;;;;;;;;;;4954871;28;20031;-77
2023/03/19 01:36:37;;;;;;;61.97;30.53;;;;;;;;;;4954473;29;20055;-77
2023/03/19 01:39:03;;;;;;;71.80;31.90;;;;;;;;;;4958610;28;20106;-78
2023/03/19 01:41:29;;;;;;;62.80;30.33;;;;;;;;;;4972772;28;20058;-79
2023/03/19 01:43:55;;;;;;;69.43;31.00;;;;;;;;;;4972607;28;20522;-78
2023/03/19 01:46:27;;;;;;;55.97;30.30;;;;;;;;;;4973717;28;20109;-77
2023/03/19 01:48:58;;;;;;;65.03;31.37;;;;;;;;;;4971948;28;20061;-77
2023/03/19 01:51:27;;;;;;;61.10;31.33;;;;;;;;;;4972385;28;20568;-77
2023/03/19 01:53:57;;;;;;;59.70;32.20;;;;;;;;;;4973097;28;20029;-77
2023/03/19 01:56:27;;;;;;;70.13;31.97;;;;;;;;;;4971757;28;20110;-78
2023/03/19 01:58:57;;;;;;;69.73;31.27;;;;;;;;;;4971613;28;20111;-77
2023/03/19 02:01:25;;;;;;;65.53;33.00;;;;;;;;;;4972156;28;20094;-77
2023/03/19 02:03:52;;;;;;;66.87;31.70;;;;;;;;;;4973520;28;20045;-78
2023/03/19 02:06:20;;;;;;;66.97;30.43;;;;;;;;;;4973564;28;20031;-78
2023/03/19 02:08:47;;;;;;;67.00;31.87;;;;;;;;;;4972200;28;20467;-77
2023/03/19 02:11:13;;;;;;;65.40;31.83;;;;;;;;;;4971886;28;20910;-77
2023/03/19 02:13:39;;;;;;;72.13;32.97;;;;;;;;;;4971762;28;20050;-78
2023/03/19 02:16:05;;;;;;;73.53;34.97;;;;;;;;;;4971713;28;20034;-77
2023/03/19 02:18:30;;;;;;;70.27;32.53;;;;;;;;;;4971825;28;20480;-76
2023/03/19 02:21:15;;;;;;;82.10;33.23;;;;;;;;;;4973329;28;20081;-78
2023/03/19 02:23:50;;;;;;;70.13;32.53;;;;;;;;;;4972181;28;20022;-79
2023/03/19 02:26:19;;;;;;;64.07;31.33;;;;;;;;;;4973927;28;20146;-78
2023/03/19 02:28:47;;;;;;;64.80;33.87;;;;;;;;;;4972313;28;20026;-77
2023/03/19 02:31:13;;;;;;;76.60;34.03;;;;;;;;;;4973446;28;20039;-79
2023/03/19 02:33:39;;;;;;;68.57;32.50;;;;;;;;;;4974313;28;20494;-78
2023/03/19 02:36:16;;;;;;;73.43;34.30;;;;;;;;;;4973056;28;20140;-79
2023/03/19 02:38:43;;;;;;;71.37;32.10;;;;;;;;;;4974192;28;20067;-78
2023/03/19 02:41:09;;;;;;;65.87;31.53;;;;;;;;;;4975176;28;20062;-78
2023/03/19 02:43:37;;;;;;;74.97;33.70;;;;;;;;;;4987880;28;20033;-78
2023/03/19 02:46:07;;;;;;;76.00;33.10;;;;;;;;;;4987603;28;20031;-78
2023/03/19 02:48:33;;;;;;;78.03;33.70;;;;;;;;;;4981505;28;20038;-78
2023/03/19 02:50:59;;;;;;;72.90;32.40;;;;;;;;;;4977582;28;20057;-78
2023/03/19 02:53:25;;;;;;;76.23;33.97;;;;;;;;;;4972146;28;20472;-78
2023/03/19 02:55:50;;;;;;;65.93;32.47;;;;;;;;;;4971517;28;20523;-76
2023/03/19 02:58:16;;;;;;;75.20;33.60;;;;;;;;;;4970917;28;20041;-76
2023/03/19 03:00:42;;;;;;;74.53;33.93;;;;;;;;;;4972337;28;20023;-77
2023/03/19 03:03:08;;;;;;;63.77;31.43;;;;;;;;;;4972126;28;20085;-76
2023/03/19 03:05:34;;;;;;;73.37;33.40;;;;;;;;;;4971572;28;20375;-76
2023/03/19 03:08:00;;;;;;;65.47;31.33;;;;;;;;;;4970346;28;20026;-76
2023/03/19 03:10:26;;;;;;;68.17;32.90;;;;;;;;;;4971395;28;20026;-77
2023/03/19 03:12:52;;;;;;;63.60;30.93;;;;;;;;;;4971108;28;20027;-77
2023/03/19 03:15:17;;;;;;;65.17;31.30;;;;;;;;;;4970796;28;20027;-78
2023/03/19 03:17:44;;;;;;;72.33;33.27;;;;;;;;;;4973678;28;20045;-78
2023/03/19 03:20:11;;;;;;;68.97;32.63;;;;;;;;;;4972280;28;20118;-78
2023/03/19 03:22:38;;;;;;;73.50;33.70;;;;;;;;;;4970615;28;20022;-78
2023/03/19 03:25:04;;;;;;;65.47;31.77;;;;;;;;;;4970268;28;20033;-78
2023/03/19 03:27:30;;;;;;;69.77;32.37;;;;;;;;;;4970474;28;20046;-77
2023/03/19 03:29:56;;;;;;;74.10;33.13;;;;;;;;;;4970179;28;20031;-77
2023/03/19 03:32:22;;;;;;;72.40;32.77;;;;;;;;;;4970291;28;20050;-77
2023/03/19 03:34:47;;;;;;;71.43;32.17;;;;;;;;;;4970355;28;20031;-77
2023/03/19 03:37:13;;;;;;;66.47;30.83;;;;;;;;;;4971522;28;20050;-76
2023/03/19 03:39:38;;;;;;;73.40;33.27;;;;;;;;;;4970262;28;20038;-77
2023/03/19 03:42:04;;;;;;;67.73;31.47;;;;;;;;;;4971687;28;20423;-76
2023/03/19 03:44:30;;;;;;;71.60;32.37;;;;;;;;;;4987131;28;20026;-76
2023/03/19 03:46:55;;;;;;;67.27;31.30;;;;;;;;;;4986860;28;20121;-76
2023/03/19 03:49:21;;;;;;;67.23;32.07;;;;;;;;;;4971993;28;20034;-78
2023/03/19 03:51:47;;;;;;;67.63;32.53;;;;;;;;;;4986985;28;20495;-78
2023/03/19 03:54:13;;;;;;;70.17;34.03;;;;;;;;;;4986540;28;20046;-77
2023/03/19 03:56:38;;;;;;;70.50;32.90;;;;;;;;;;4971873;28;20080;-76
2023/03/19 03:59:04;;;;;;;67.83;32.27;;;;;;;;;;4972159;28;20448;-78
2023/03/19 04:01:29;;;;;;;72.43;31.63;;;;;;;;;;4970443;28;20061;-78
2023/03/19 04:03:55;;;;;;;70.53;32.47;;;;;;;;;;4971648;28;20395;-77
2023/03/19 04:06:23;;;;;;;69.50;31.97;;;;;;;;;;4985982;28;20034;-77
2023/03/19 04:08:48;;;;;;;72.83;31.43;;;;;;;;;;4986178;28;20054;-78
2023/03/19 04:11:14;;;;;;;57.47;30.60;;;;;;;;;;4986219;28;20121;-78
2023/03/19 04:13:40;;;;;;;71.40;32.20;;;;;;;;;;4971479;28;20045;-78
2023/03/19 04:16:08;;;;;;;66.93;30.27;;;;;;;;;;4971538;28;20434;-76
2023/03/19 04:18:34;;;;;;;62.90;31.13;;;;;;;;;;4986288;28;20034;-77
2023/03/19 04:21:00;;;;;;;73.63;30.53;;;;;;;;;;4985329;28;20026;-76
2023/03/19 04:23:26;;;;;;;65.07;31.67;;;;;;;;;;4971529;28;20620;-76
2023/03/19 04:25:52;;;;;;;74.03;31.27;;;;;;;;;;4969650;28;20114;-77
2023/03/19 04:28:17;;;;;;;68.87;31.23;;;;;;;;;;4985605;28;20058;-78
2023/03/19 04:30:43;;;;;;;71.70;29.17;;;;;;;;;;4969679;28;20038;-77
2023/03/19 04:33:10;;;;;;;63.63;30.43;;;;;;;;;;4971199;28;20083;-77
2023/03/19 04:35:36;;;;;;;61.77;30.00;;;;;;;;;;4969984;28;20130;-77
2023/03/19 04:38:02;;;;;;;71.33;30.27;;;;;;;;;;4985209;28;20126;-78
2023/03/19 04:40:28;;;;;;;62.27;30.70;;;;;;;;;;4973985;28;20038;-78
2023/03/19 04:42:54;;;;;;;60.63;31.67;;;;;;;;;;4972214;28;20022;-78
2023/03/19 04:45:19;;;;;;;64.30;29.70;;;;;;;;;;4973528;28;20065;-79
2023/03/19 04:47:45;;;;;;;73.77;30.17;;;;;;;;;;4969652;28;20027;-78
2023/03/19 04:50:11;;;;;;;66.93;31.20;;;;;;;;;;4971220;28;20035;-76
2023/03/19 04:52:38;;;;;;;63.20;30.50;;;;;;;;;;4969735;28;20049;-77
2023/03/19 04:55:05;;;;;;;63.73;29.23;;;;;;;;;;4969440;28;20023;-77
2023/03/19 04:57:30;;;;;;;65.53;30.60;;;;;;;;;;4971534;28;20035;-76
2023/03/19 04:59:56;;;;;;;63.40;29.53;;;;;;;;;;4969917;28;20384;-76
2023/03/19 05:02:22;;;;;;;59.57;27.50;;;;;;;;;;4969494;28;20109;-76
2023/03/19 05:04:47;;;;;;;73.97;30.40;;;;;;;;;;4970851;28;20026;-77
2023/03/19 05:07:13;;;;;;;66.77;30.47;;;;;;;;;;4970581;28;20058;-78
2023/03/19 05:09:39;;;;;;;65.70;29.80;;;;;;;;;;4970829;28;20102;-77
2023/03/19 05:12:05;;;;;;;53.27;28.83;;;;;;;;;;4969435;28;20038;-77
2023/03/19 05:14:31;;;;;;;70.40;29.20;;;;;;;;;;4971283;28;20072;-77
2023/03/19 05:16:56;;;;;;;57.17;28.00;;;;;;;;;;4971187;28;20042;-78
2023/03/19 05:19:22;;;;;;;57.67;29.43;;;;;;;;;;4970516;28;20749;-76
2023/03/19 05:21:48;;;;;;;65.07;30.63;;;;;;;;;;4970861;28;20528;-78
2023/03/19 05:24:13;;;;;;;66.57;28.87;;;;;;;;;;4970397;28;20614;-77
2023/03/19 05:26:39;;;;;;;64.27;28.27;;;;;;;;;;4969505;28;20034;-78
2023/03/19 05:29:05;;;;;;;60.37;28.03;;;;;;;;;;4970688;28;20026;-77
2023/03/19 05:31:30;;;;;;;62.00;28.07;;;;;;;;;;4986229;28;20022;-78
2023/03/19 05:33:56;;;;;;;60.90;30.70;;;;;;;;;;4972142;28;20023;-78
2023/03/19 05:36:22;;;;;;;67.83;28.57;;;;;;;;;;4973386;28;20019;-78
2023/03/19 05:38:48;;;;;;;70.87;28.77;;;;;;;;;;4971294;28;20026;-78
2023/03/19 05:41:14;;;;;;;76.20;31.13;;;;;;;;;;4954843;29;20061;-78
2023/03/19 05:43:39;;;;;;;65.77;30.37;;;;;;;;;;4955222;28;20030;-80
2023/03/19 05:46:05;;;;;;;59.87;29.93;;;;;;;;;;4969447;28;20386;-78
2023/03/19 05:48:30;;;;;;;57.07;28.33;;;;;;;;;;4972880;28;20089;-78
2023/03/19 05:50:58;;;;;;;60.40;30.63;;;;;;;;;;4973766;28;20090;-78
2023/03/19 05:53:23;;;;;;;59.43;28.47;;;;;;;;;;4972199;28;20027;-77
2023/03/19 05:55:49;;;;;;;55.73;26.80;;;;;;;;;;4971983;28;20086;-76
2023/03/19 05:58:15;;;;;;;58.57;28.93;;;;;;;;;;4972150;28;20615;-78
2023/03/19 06:00:41;;;;;;;61.87;28.50;;;;;;;;;;4973321;28;20027;-79
2023/03/19 06:03:07;;;;;;;60.70;28.00;;;;;;;;;;4971584;28;20368;-79
2023/03/19 06:05:32;;;;;;;63.47;28.77;;;;;;;;;;4971848;28;20369;-77
2023/03/19 06:07:58;;;;;;;60.13;28.30;;;;;;;;;;4972834;28;20027;-78
2023/03/19 06:10:23;;;;;;;58.70;26.20;;;;;;;;;;4971726;28;20097;-78
2023/03/19 06:12:49;;;;;;;58.40;27.67;;;;;;;;;;4972617;28;20090;-76
2023/03/19 06:15:15;;;;;;;51.90;26.70;;;;;;;;;;4973173;28;20037;-77
2023/03/19 06:17:41;;;;;;;59.60;27.73;;;;;;;;;;4971732;28;20030;-77
2023/03/19 06:20:07;;;;;;;56.97;27.03;;;;;;;;;;4973222;28;20045;-78
2023/03/19 06:22:32;;;;;;;58.87;27.83;;;;;;;;;;4973041;28;20104;-78
2023/03/19 06:24:58;;;;;;;61.10;26.80;;;;;;;;;;4971501;28;20725;-79
2023/03/19 06:27:23;;;;;;;56.90;27.40;;;;;;;;;;4972852;28;20074;-78
2023/03/19 06:29:49;;;;;;;62.57;28.03;;;;;;;;;;4971892;28;20027;-78
2023/03/19 06:32:15;;;;;;;56.27;26.57;;;;;;;;;;4971713;28;20034;-78
2023/03/19 06:34:41;;;;;;;55.50;27.20;;;;;;;;;;4971668;28;20038;-77
2023/03/19 06:37:06;;;;;;;50.37;25.70;;;;;;;;;;4972573;28;20043;-78
2023/03/19 06:39:32;;;;;;;50.87;25.80;;;;;;;;;;4971244;28;20030;-77
2023/03/19 06:41:57;;;;;;;57.90;27.00;;;;;;;;;;4972849;28;20472;-77
2023/03/19 06:44:24;;;;;;;53.17;24.57;;;;;;;;;;4986611;28;20046;-77
2023/03/19 06:46:49;;;;;;;48.03;25.30;;;;;;;;;;4987859;28;20027;-78
2023/03/19 06:49:15;;;;;;;57.10;25.77;;;;;;;;;;4972311;28;20089;-76
2023/03/19 06:51:40;;;;;;;59.17;26.67;;;;;;;;;;4972543;28;20766;-77
2023/03/19 06:54:06;;;;;;;47.23;24.83;;;;;;;;;;4972526;28;20042;-77
2023/03/19 06:56:31;;;;;;;54.60;24.80;;;;;;;;;;4971415;28;20025;-77
2023/03/19 06:58:57;;;;;;;53.60;24.77;;;;;;;;;;4987450;28;20101;-77
2023/03/19 07:01:22;;;;;;;58.60;26.03;;;;;;;;;;4987483;28;20042;-77
2023/03/19 07:03:48;;;;;;;61.67;27.73;;;;;;;;;;4972495;28;20029;-77
2023/03/19 07:06:13;;;;;;;56.07;25.57;;;;;;;;;;4987025;28;20034;-78
2023/03/19 07:08:44;;;;;;;59.47;27.37;;;;;;;;;;4987098;28;20085;-77
2023/03/19 07:11:11;;;;;;;57.67;28.50;;;;;;;;;;4987462;28;20023;-78
2023/03/19 07:13:36;;;;;;;50.63;27.50;;;;;;;;;;4972548;28;20026;-79
2023/03/19 07:16:02;;;;;;;61.57;28.67;;;;;;;;;;4987878;28;20081;-78
2023/03/19 07:18:28;;;;;;;58.17;28.30;;;;;;;;;;4972778;28;20035;-78
2023/03/19 07:20:55;;;;;;;60.00;28.93;;;;;;;;;;4987310;28;20029;-78
2023/03/19 07:23:20;;;;;;;61.63;29.17;;;;;;;;;;4970458;28;20106;-78
2023/03/19 07:25:46;;;;;;;51.83;27.50;;;;;;;;;;4972070;28;20374;-78
2023/03/19 07:28:12;;;;;;;56.47;28.00;;;;;;;;;;4986692;28;20022;-78
2023/03/19 07:30:38;;;;;;;53.47;26.47;;;;;;;;;;4972992;28;20019;-78
2023/03/19 07:33:06;;;;;;;63.53;27.20;;;;;;;;;;4987400;28;20413;-79
2023/03/19 07:35:32;;;;;;;56.60;27.73;;;;;;;;;;4973193;28;20082;-78
2023/03/19 07:37:58;;;;;;;56.50;28.50;;;;;;;;;;4973747;28;20063;-79
2023/03/19 07:40:24;;;;;;;60.93;27.43;;;;;;;;;;4976943;28;20120;-78
2023/03/19 07:42:50;;;;;;;60.37;30.30;;;;;;;;;;4974240;28;20031;-78
2023/03/19 07:45:16;;;;;;;53.03;27.00;;;;;;;;;;4982568;28;20033;-76
2023/03/19 07:47:41;;;;;;;57.50;27.53;;;;;;;;;;4993033;28;20060;-79
2023/03/19 07:50:08;;;;;;;59.13;27.30;;;;;;;;;;4990972;28;20035;-77
2023/03/19 07:52:33;;;;;;;55.67;26.40;;;;;;;;;;4980018;28;20105;-79
2023/03/19 07:54:59;;;;;;;49.33;27.17;;;;;;;;;;4971693;28;20535;-78
2023/03/19 07:57:25;;;;;;;55.60;28.63;;;;;;;;;;4971089;28;20035;-78
2023/03/19 07:59:51;;;;;;;52.13;26.53;;;;;;;;;;4971640;28;20031;-78
2023/03/19 08:02:17;;;;;;;53.17;27.00;;;;;;;;;;4971695;28;20155;-77
2023/03/19 08:04:43;;;;;;;52.87;26.23;;;;;;;;;;4971764;28;20030;-78
2023/03/19 08:07:11;;;;;;;53.47;24.97;;;;;;;;;;4970428;28;20037;-79
2023/03/19 08:09:38;;;;;;;53.10;25.80;;;;;;;;;;4970668;28;20497;-79
2023/03/19 08:12:05;;;;;;;53.73;27.90;;;;;;;;;;4971851;28;20050;-78
2023/03/19 08:14:32;;;;;;;46.20;23.87;;;;;;;;;;4969778;28;20027;-78
2023/03/19 08:16:57;;;;;;;49.27;24.20;;;;;;;;;;4970838;28;20121;-77
2023/03/19 08:19:23;;;;;;;43.97;24.53;;;;;;;;;;4972115;28;20136;-78
2023/03/19 08:21:48;;;;;;;50.40;26.27;;;;;;;;;;4986855;28;20030;-79
2023/03/19 08:24:14;;;;;;;46.27;25.80;;;;;;;;;;4969344;28;20086;-78
2023/03/19 08:26:40;;;;;;;45.93;24.93;;;;;;;;;;4954564;28;20034;-78
2023/03/19 08:29:05;;;;;;;57.17;24.90;;;;;;;;;;4970853;28;20388;-77
2023/03/19 08:31:31;;;;;;;49.53;24.97;;;;;;;;;;4972035;28;20026;-79
2023/03/19 08:33:59;;;;;;;48.13;24.67;;;;;;;;;;4970059;28;20039;-77
2023/03/19 08:36:24;;;;;;;49.63;24.43;;;;;;;;;;4970168;28;20027;-78
2023/03/19 08:38:53;;;;;;;47.47;24.43;;;;;;;;;;4967151;28;20126;-78
2023/03/19 08:41:20;;;;;;;48.97;23.80;;;;;;;;;;4950177;29;20372;-78
2023/03/19 08:43:45;;;;;;;46.47;23.77;;;;;;;;;;4950715;29;20039;-78
2023/03/19 08:46:10;;;;;;;50.27;24.87;;;;;;;;;;4950669;29;20046;-78
2023/03/19 08:48:36;;;;;;;47.50;24.17;;;;;;;;;;4952224;29;20439;-78
2023/03/19 08:51:02;;;;;;;47.07;23.77;;;;;;;;;;4952088;28;20372;-78
2023/03/19 08:53:29;;;;;;;40.67;21.83;;;;;;;;;;4950118;28;20035;-78
2023/03/19 08:55:58;;;;;;;37.63;21.45;;;;;;;;;;4950989;28;20069;-77
2023/03/19 08:58:24;;;;;;;38.40;20.85;;;;;;;;;;4950330;28;20579;-77
2023/03/19 09:00:49;;;;;;;41.65;22.00;;;;;;;;;;4950310;29;20035;-77
2023/03/19 09:03:16;;;;;;;36.38;20.42;;;;;;;;;;4951617;29;20181;-78
2023/03/19 09:05:42;;;;;;;36.03;18.88;;;;;;;;;;4950672;28;20035;-77
2023/03/19 09:08:08;;;;;;;36.85;17.92;;;;;;;;;;4955614;29;20380;-78
2023/03/19 09:10:34;;;;;;;32.72;16.98;;;;;;;;;;4954768;28;20039;-75
2023/03/19 09:12:59;;;;;;;34.95;16.55;;;;;;;;;;4955092;29;20027;-75
2023/03/19 09:15:26;;;;;;;29.08;15.98;;;;;;;;;;4954777;28;20356;-75
2023/03/19 09:17:51;;;;;;;33.58;16.15;;;;;;;;;;4955795;28;20023;-75
2023/03/19 09:20:17;;;;;;;29.50;16.58;;;;;;;;;;4953770;29;20031;-76
2023/03/19 09:22:43;;;;;;;31.60;16.85;;;;;;;;;;4955358;28;20031;-76
2023/03/19 09:25:09;;;;;;;30.38;15.80;;;;;;;;;;4953756;28;20126;-76
2023/03/19 09:27:35;;;;;;;33.78;16.20;;;;;;;;;;4953740;28;20046;-75
2023/03/19 09:30:00;;;;;;;29.30;15.98;;;;;;;;;;4954471;29;20031;-75
2023/03/19 09:32:26;;;;;;;30.48;15.00;;;;;;;;;;4954701;28;20035;-76
2023/03/19 09:34:51;;;;;;;27.35;15.00;;;;;;;;;;4955425;29;20081;-76
2023/03/19 09:37:17;;;;;;;21.48;12.93;;;;;;;;;;4956499;28;20147;-76
2023/03/19 09:39:43;;;;;;;23.65;12.73;;;;;;;;;;4955108;28;20060;-75
2023/03/19 09:42:34;;;;;;;25.73;13.20;;;;;;;;;;4954578;28;20375;-76
2023/03/19 09:44:59;;;;;;;24.73;13.45;;;;;;;;;;4955267;28;20035;-77
2023/03/19 09:47:36;;;;;;;23.15;12.52;;;;;;;;;;4953395;28;20498;-76
2023/03/19 09:50:12;;;;;;;21.67;12.75;;;;;;;;;;4953531;28;20077;-75
2023/03/19 09:52:49;;;;;;;25.77;13.45;;;;;;;;;;4954817;29;20032;-75
2023/03/19 09:55:34;;;;;;;25.15;14.15;;;;;;;;;;4954956;28;20086;-76
2023/03/19 09:58:01;;;;;;;23.45;13.27;;;;;;;;;;4954337;29;20031;-75
2023/03/19 10:00:34;;;;;;;24.50;13.07;;;;;;;;;;4956108;28;20126;-75
2023/03/19 10:03:31;;;;;;;23.55;13.27;;;;;;;;;;4956448;28;20452;-75
2023/03/19 10:06:35;;;;;;;25.25;14.38;;;;;;;;;;4956020;28;20031;-75
2023/03/19 10:09:32;;;;;;;23.67;14.20;;;;;;;;;;4957560;29;20039;-77
2023/03/19 10:12:43;;;;;;;28.40;14.77;;;;;;;;;;4959685;28;20054;-75
2023/03/19 10:15:24;;;;;;;25.83;14.57;;;;;;;;;;4923043;28;20134;-76
2023/03/19 10:17:56;;;;;;;28.52;14.25;;;;;;;;;;4952917;28;20547;-76
2023/03/19 10:20:48;;;;;;;24.63;14.45;;;;;;;;;;4954588;28;20027;-77
2023/03/19 10:23:32;;;;;;;27.60;15.00;;;;;;;;;;4953472;28;20085;-76
2023/03/19 10:26:01;;;;;;;24.80;13.70;;;;;;;;;;4954329;28;20031;-76
2023/03/19 10:28:28;;;;;;;24.85;14.43;;;;;;;;;;4953274;29;20113;-76
2023/03/19 10:30:53;;;;;;;25.55;13.95;;;;;;;;;;4954934;28;20055;-77
2023/03/19 10:33:27;;;;;;;22.00;14.15;;;;;;;;;;4953410;29;20066;-76
2023/03/19 10:36:10;;;;;;;23.92;14.77;;;;;;;;;;4953225;28;20027;-75
2023/03/19 10:38:40;;;;;;;23.90;14.20;;;;;;;;;;4953555;28;20055;-75
2023/03/19 10:41:50;;;;;;;23.23;14.57;;;;;;;;;;4972716;28;20118;-77
2023/03/19 10:44:32;;;;;;;23.85;14.75;;;;;;;;;;4976001;28;20042;-77
2023/03/19 10:47:10;;;;;;;23.48;13.57;;;;;;;;;;4973810;28;20484;-76
2023/03/19 10:49:37;;;;;;;26.35;14.45;;;;;;;;;;4971996;28;20209;-77
2023/03/19 10:52:03;;;;;;;31.73;14.73;;;;;;;;;;4972051;28;20363;-76
2023/03/19 10:54:29;;;;;;;20.30;12.48;;;;;;;;;;4971958;28;20030;-76
2023/03/19 10:56:57;;;;;;;21.67;13.02;;;;;;;;;;4971622;28;20022;-76
2023/03/19 10:59:30;;;;;;;25.08;12.32;;;;;;;;;;4971625;28;20030;-76
2023/03/19 11:02:01;;;;;;;;;;;;;;;;;;4971617;28;20550;-76
2023/03/19 11:04:28;;;;;;;25.15;13.30;;;;;;;;;;4971116;28;19910;-76
2023/03/19 11:07:07;;;;;;;23.52;12.30;;;;;;;;;;4971607;28;20031;-76
2023/03/19 11:09:35;;;;;;;22.05;13.25;;;;;;;;;;4971667;28;20043;-76
2023/03/19 11:12:36;;;;;;;24.80;13.23;;;;;;;;;;4973426;28;20521;-76
2023/03/19 11:15:06;;;;;;;28.70;14.55;;;;;;;;;;4915210;29;20054;-75
2023/03/19 11:17:40;;;;;;;29.25;12.48;;;;;;;;;;4976094;28;20043;-76
2023/03/19 11:20:17;;;;;;;23.90;12.10;;;;;;;;;;4972355;28;20027;-76
2023/03/19 11:22:43;;;;;;;29.25;13.18;;;;;;;;;;4970816;28;20029;-76
2023/03/19 11:25:26;;;;;;;20.80;12.77;;;;;;;;;;4955219;28;20070;-77
2023/03/19 11:28:13;;;;;;;22.70;12.82;;;;;;;;;;4971592;28;20484;-76
2023/03/19 11:30:51;;;;;;;22.95;12.98;;;;;;;;;;4971884;28;20735;-76
2023/03/19 11:33:37;;;;;;;23.33;13.10;;;;;;;;;;4972217;28;20030;-76
2023/03/19 11:36:21;;;;;;;25.65;12.27;;;;;;;;;;4970271;28;20027;-76
2023/03/19 11:38:52;;;;;;;21.17;12.20;;;;;;;;;;4971920;28;20118;-75
2023/03/19 11:42:02;;;;;;;20.98;12.00;;;;;;;;;;4972664;28;20079;-75
2023/03/19 11:44:39;;;;;;;20.92;12.35;;;;;;;;;;4971109;28;20160;-76
2023/03/19 11:47:23;;;;;;;29.33;12.15;;;;;;;;;;4973163;28;20110;-75
2023/03/19 11:50:18;;;;;;;26.23;13.90;;;;;;;;;;4971551;28;20475;-75
2023/03/19 11:53:20;;;;;;;23.15;12.73;;;;;;;;;;4970479;28;20041;-76
2023/03/19 11:56:04;;;;;;;;;;;;;;;;;;4974403;28;20089;-76
2023/03/19 11:59:09;;;;;;;23.58;11.65;;;;;;;;;;4969792;28;19993;-77
2023/03/19 12:01:42;;;;;;;23.38;12.73;;;;;;;;;;4970416;28;20031;-76
2023/03/19 12:04:25;;;;;;;22.38;11.95;;;;;;;;;;4970400;28;20023;-76
2023/03/19 12:06:53;;;;;;;21.50;11.70;;;;;;;;;;4987569;28;20058;-76
2023/03/19 12:09:35;;;;;;;23.75;12.75;;;;;;;;;;4971933;28;20035;-77
2023/03/19 12:12:09;;;;;;;21.60;11.32;;;;;;;;;;4972126;28;20041;-76
2023/03/19 12:15:19;;;;;;;21.40;11.50;;;;;;;;;;4972020;28;20065;-76
2023/03/19 12:18:02;;;;;;;22.00;10.70;;;;;;;;;;4931455;29;20055;-76
2023/03/19 12:20:43;;;;;;;19.90;11.68;;;;;;;;;;4970845;28;20066;-76
2023/03/19 12:23:17;;;;;;;23.67;10.93;;;;;;;;;;4972017;28;20648;-76
2023/03/19 12:25:42;;;;;;;20.55;10.45;;;;;;;;;;4971699;28;20105;-76
2023/03/19 12:28:25;;;;;;;23.08;12.75;;;;;;;;;;4971834;28;20165;-76
2023/03/19 12:31:20;;;;;;;21.05;11.13;;;;;;;;;;4970369;28;20019;-76
2023/03/19 12:33:58;;;;;;;21.85;11.60;;;;;;;;;;4969697;28;20061;-75
2023/03/19 12:36:36;;;;;;;20.90;11.48;;;;;;;;;;4971510;28;20029;-77
2023/03/19 12:39:06;;;;;;;20.33;11.27;;;;;;;;;;4968507;28;20419;-75
2023/03/19 12:41:35;;;;;;;20.52;11.25;;;;;;;;;;4956696;28;20070;-76
2023/03/19 12:44:06;;;;;;;21.67;10.38;;;;;;;;;;4957641;28;20353;-76
2023/03/19 12:47:04;;;;;;;21.67;12.32;;;;;;;;;;4959402;29;20031;-75
2023/03/19 12:49:41;;;;;;;29.60;13.82;;;;;;;;;;4973895;28;20483;-75
2023/03/19 12:52:36;;;;;;;24.92;12.52;;;;;;;;;;4957992;28;20448;-76
2023/03/19 12:55:13;;;;;;;23.40;12.00;;;;;;;;;;4958497;29;20146;-74
2023/03/19 12:58:06;;;;;;;22.05;11.43;;;;;;;;;;4954533;28;20032;-75
2023/03/19 13:00:37;;;;;;;23.17;12.02;;;;;;;;;;4963368;28;20484;-76
2023/03/19 13:03:24;;;;;;;22.08;12.15;;;;;;;;;;4954685;28;20263;-76
2023/03/19 13:06:21;;;;;;;20.33;12.63;;;;;;;;;;4955917;28;20043;-76
2023/03/19 13:08:54;;;;;;;20.02;12.55;;;;;;;;;;4947786;29;20031;-76
2023/03/19 13:11:50;;;;;;;28.00;13.50;;;;;;;;;;4956112;28;20030;-77
2023/03/19 13:14:20;;;;;;;26.00;13.30;;;;;;;;;;4955351;28;20034;-77
2023/03/19 13:17:04;;;;;;;24.08;13.52;;;;;;;;;;4953486;29;20059;-76
2023/03/19 13:19:39;;;;;;;24.05;12.55;;;;;;;;;;4953422;29;20110;-76
2023/03/19 13:22:13;;;;;;;27.08;14.63;;;;;;;;;;4953547;29;20129;-76
2023/03/19 13:24:40;;;;;;;30.73;16.25;;;;;;;;;;4953451;28;20019;-76
2023/03/19 13:27:10;;;;;;;37.40;17.02;;;;;;;;;;4954947;28;20027;-76
2023/03/19 13:29:37;;;;;;;29.65;15.68;;;;;;;;;;4953475;28;20023;-75
2023/03/19 13:32:24;;;;;;;27.40;16.17;;;;;;;;;;4953469;28;20035;-75
2023/03/19 13:34:50;;;;;;;31.75;16.40;;;;;;;;;;4952863;28;20480;-74
2023/03/19 13:37:18;;;;;;;30.17;15.20;;;;;;;;;;4952830;28;20051;-75
2023/03/19 13:39:47;;;;;;;31.80;15.98;;;;;;;;;;4964375;28;20027;-76
2023/03/19 13:42:40;;;;;;;31.73;16.27;;;;;;;;;;4974249;28;20027;-77
2023/03/19 13:45:25;;;;;;;29.50;15.80;;;;;;;;;;4972781;28;20117;-77
2023/03/19 13:47:51;;;;;;;31.48;15.88;;;;;;;;;;4972599;28;20506;-77
2023/03/19 13:50:25;;;;;;;29.58;15.75;;;;;;;;;;4972517;28;20030;-77
2023/03/19 13:52:55;;;;;;;34.25;18.42;;;;;;;;;;4988192;28;20034;-77
2023/03/19 13:55:24;;;;;;;32.03;15.43;;;;;;;;;;4974202;28;20023;-75
2023/03/19 14:01:10;;;;;;;32.15;16.05;;;;;;;;;;4971794;28;20046;-77
2023/03/19 14:03:40;;;;;;;33.13;17.13;;;;;;;;;;4972762;28;20014;-76
2023/03/19 14:06:33;;;;;;;42.50;17.58;;;;;;;;;;4975020;28;20482;-75
2023/03/19 14:08:59;;;;;;;31.45;17.13;;;;;;;;;;4975207;28;20026;-75
2023/03/19 14:11:30;;;;;;;30.90;16.27;;;;;;;;;;4974965;28;20494;-76
2023/03/19 14:14:01;;;;;;;32.92;17.10;;;;;;;;;;4978466;28;20034;-76
2023/03/19 14:16:42;;;;;;;32.45;17.25;;;;;;;;;;4972399;28;20639;-76
2023/03/19 14:19:17;;;;;;;33.92;18.45;;;;;;;;;;4973513;28;20023;-77
2023/03/19 14:22:07;;;;;;;26.15;15.55;;;;;;;;;;4973598;28;20030;-76
2023/03/19 14:24:35;;;;;;;29.00;16.85;;;;;;;;;;4972111;28;20030;-76
2023/03/19 14:27:19;;;;;;;43.05;18.40;;;;;;;;;;4971816;28;20383;-75
2023/03/19 14:29:46;;;;;;;33.60;16.35;;;;;;;;;;4971976;28;20034;-75
2023/03/19 14:32:24;;;;;;;33.22;18.48;;;;;;;;;;4972009;28;20019;-75
2023/03/19 14:34:52;;;;;;;34.05;17.73;;;;;;;;;;4972713;28;20049;-76
2023/03/19 14:37:23;;;;;;;32.92;17.13;;;;;;;;;;4974553;28;20053;-76
2023/03/19 14:39:57;;;;;;;38.75;18.27;;;;;;;;;;4972276;28;20130;-76